Time;durP1;ratioP1;P1;durP2;ratioP2;P2;SDS_P1;SDS_P2;PMS_P1;PMS_P2;Temp;Humidity;BMP_temperature;BMP_pressure;BME280_temperature;BME280_humidity;BME280_pressure;Samples;Min_cycle;Max_cycle;Signal;HPM_P1;HPM_P2
2021/10/31 11:30:12;;;;;;;2.33;2.10;;;;;;;;;;5117170;27;20336;-69
2021/10/31 11:32:40;;;;;;;2.30;1.57;;;;;;;;;;5103667;28;20859;-68
2021/10/31 11:35:08;;;;;;;2.70;1.77;;;;;;;;;;5088878;28;20445;-69
2021/10/31 11:37:37;;;;;;;3.90;1.93;;;;;;;;;;5108867;28;20546;-73
2021/10/31 11:40:05;;;;;;;2.57;1.93;;;;;;;;;;5095415;28;20483;-68
2021/10/31 11:42:36;;;;;;;2.40;2.20;;;;;;;;;;5100974;28;20519;-69
2021/10/31 11:45:08;;;;;;;2.17;1.90;;;;;;;;;;5088212;28;20429;-69
2021/10/31 11:47:38;;;;;;;2.13;1.90;;;;;;;;;;5088181;28;20464;-68
2021/10/31 11:50:07;;;;;;;3.40;2.23;;;;;;;;;;5090908;28;20471;-68
2021/10/31 11:52:44;;;;;;;2.23;1.70;;;;;;;;;;5095162;28;20434;-69
2021/10/31 11:55:32;;;;;;;2.30;2.10;;;;;;;;;;5108252;28;20432;-69
2021/10/31 11:58:06;;;;;;;1.77;1.50;;;;;;;;;;5096533;28;20973;-69
2021/10/31 12:00:49;;;;;;;2.13;1.70;;;;;;;;;;5108116;28;20460;-70
2021/10/31 12:03:41;;;;;;;2.00;1.43;;;;;;;;;;5096094;28;20790;-69
2021/10/31 12:06:23;;;;;;;2.03;1.77;;;;;;;;;;5095224;28;20425;-70
2021/10/31 12:08:53;;;;;;;2.07;1.53;;;;;;;;;;5108058;28;20471;-70
2021/10/31 12:11:21;;;;;;;2.80;1.97;;;;;;;;;;5097470;28;20439;-70
2021/10/31 12:13:51;;;;;;;2.10;1.73;;;;;;;;;;5087911;28;21000;-70
2021/10/31 12:16:18;;;;;;;2.40;1.70;;;;;;;;;;5087644;28;20841;-70
2021/10/31 12:18:48;;;;;;;2.40;1.90;;;;;;;;;;5087760;28;20527;-70
2021/10/31 12:21:18;;;;;;;2.60;1.80;;;;;;;;;;5088365;28;20436;-70
2021/10/31 12:23:53;;;;;;;2.37;2.00;;;;;;;;;;5094198;28;20429;-70
2021/10/31 12:26:20;;;;;;;2.40;1.97;;;;;;;;;;5103003;28;20780;-70
2021/10/31 12:28:47;;;;;;;2.40;1.90;;;;;;;;;;5097692;28;20494;-70
2021/10/31 12:31:25;;;;;;;2.43;2.23;;;;;;;;;;5087170;28;20447;-68
2021/10/31 12:34:13;;;;;;;1.73;1.63;;;;;;;;;;5095498;28;20439;-71
2021/10/31 12:36:42;;;;;;;2.80;1.70;;;;;;;;;;5103075;28;20424;-71
2021/10/31 12:39:36;;;;;;;2.93;1.53;;;;;;;;;;5106470;28;20436;-71
2021/10/31 12:42:12;;;;;;;2.13;1.90;;;;;;;;;;5052429;28;21059;-71
2021/10/31 12:44:42;;;;;;;2.20;1.80;;;;;;;;;;5085598;28;20436;-71
2021/10/31 12:47:13;;;;;;;2.13;1.80;;;;;;;;;;5073686;28;20449;-71
2021/10/31 12:49:41;;;;;;;2.00;1.87;;;;;;;;;;5073824;28;20511;-71
2021/10/31 12:52:19;;;;;;;2.03;1.83;;;;;;;;;;5075433;28;20859;-71
2021/10/31 12:54:47;;;;;;;2.27;1.90;;;;;;;;;;5081714;28;20425;-72
2021/10/31 12:57:14;;;;;;;2.73;2.07;;;;;;;;;;5073018;28;20496;-72
2021/10/31 12:59:45;;;;;;;2.40;2.20;;;;;;;;;;5075091;28;20457;-71
2021/10/31 13:02:14;;;;;;;2.50;2.10;;;;;;;;;;5076876;28;20515;-71
2021/10/31 13:04:50;;;;;;;3.33;2.30;;;;;;;;;;5082269;28;20433;-72
2021/10/31 13:07:17;;;;;;;2.67;1.90;;;;;;;;;;5091845;28;20439;-71
2021/10/31 13:09:46;;;;;;;2.27;2.07;;;;;;;;;;5091780;28;20469;-72
2021/10/31 13:12:23;;;;;;;2.97;2.20;;;;;;;;;;5092339;28;20475;-71
2021/10/31 13:14:50;;;;;;;2.30;1.83;;;;;;;;;;5093735;28;20515;-71
2021/10/31 13:17:18;;;;;;;1.70;1.60;;;;;;;;;;5075114;28;20805;-71
2021/10/31 13:19:46;;;;;;;2.17;2.00;;;;;;;;;;5074447;28;20438;-71
2021/10/31 13:22:17;;;;;;;2.63;1.90;;;;;;;;;;5072703;28;20484;-71
2021/10/31 13:24:46;;;;;;;2.47;2.13;;;;;;;;;;5088008;28;20962;-72
2021/10/31 13:27:18;;;;;;;3.07;2.10;;;;;;;;;;5091700;28;20457;-71
2021/10/31 13:29:45;;;;;;;2.57;2.27;;;;;;;;;;5083316;28;20483;-72
2021/10/31 13:32:17;;;;;;;2.57;2.37;;;;;;;;;;5091127;28;20843;-71
2021/10/31 13:34:45;;;;;;;4.00;3.03;;;;;;;;;;5091419;28;20500;-71
2021/10/31 13:37:13;;;;;;;2.93;2.73;;;;;;;;;;5072125;28;20453;-71
2021/10/31 13:39:42;;;;;;;2.40;2.20;;;;;;;;;;5077908;28;20450;-71
2021/10/31 13:42:15;;;;;;;2.43;2.07;;;;;;;;;;5078611;28;20452;-71
2021/10/31 13:44:46;;;;;;;2.60;2.40;;;;;;;;;;5086555;28;20449;-71
2021/10/31 13:47:31;;;;;;;5.13;3.30;;;;;;;;;;5069676;28;20418;-71
2021/10/31 13:50:06;;;;;;;2.50;2.30;;;;;;;;;;5046833;28;20473;-71
2021/10/31 13:52:34;;;;;;;3.30;3.00;;;;;;;;;;5029685;28;20533;-71
2021/10/31 13:55:07;;;;;;;3.13;2.57;;;;;;;;;;5045508;28;20474;-71
2021/10/31 13:57:36;;;;;;;4.13;3.47;;;;;;;;;;5027663;28;20423;-71
2021/10/31 14:00:04;;;;;;;2.60;2.40;;;;;;;;;;5027575;28;20554;-71
2021/10/31 14:02:31;;;;;;;3.60;3.30;;;;;;;;;;5046508;28;20470;-71
2021/10/31 14:05:06;;;;;;;2.60;1.93;;;;;;;;;;5046037;28;20466;-70
2021/10/31 14:07:37;;;;;;;4.10;3.00;;;;;;;;;;5047244;28;20525;-70
2021/10/31 14:10:07;;;;;;;2.73;2.33;;;;;;;;;;5046931;28;20557;-70
2021/10/31 14:12:34;;;;;;;4.40;2.60;;;;;;;;;;5047360;28;20930;-70
2021/10/31 14:15:03;;;;;;;3.63;2.30;;;;;;;;;;5046835;28;20439;-70
2021/10/31 14:17:31;;;;;;;3.50;2.60;;;;;;;;;;5046729;28;20530;-70
2021/10/31 14:19:59;;;;;;;3.53;2.90;;;;;;;;;;5047159;28;20433;-70
2021/10/31 14:22:29;;;;;;;2.80;2.50;;;;;;;;;;5045814;28;20447;-70
2021/10/31 14:25:00;;;;;;;2.57;2.17;;;;;;;;;;5046545;28;20514;-70
2021/10/31 14:27:31;;;;;;;2.60;2.40;;;;;;;;;;5050357;28;20432;-70
2021/10/31 14:30:13;;;;;;;3.70;2.57;;;;;;;;;;5075739;28;20923;-71
2021/10/31 14:32:47;;;;;;;2.50;2.30;;;;;;;;;;5072069;28;20512;-70
2021/10/31 14:35:14;;;;;;;3.77;3.10;;;;;;;;;;5088955;28;20961;-70
2021/10/31 14:37:41;;;;;;;9.07;4.13;;;;;;;;;;5089455;28;20934;-71
2021/10/31 14:40:24;;;;;;;4.43;3.57;;;;;;;;;;5088830;28;20449;-71
2021/10/31 14:43:11;;;;;;;4.67;4.00;;;;;;;;;;5089412;28;20439;-71
2021/10/31 14:45:38;;;;;;;4.87;4.37;;;;;;;;;;5080403;28;20787;-70
2021/10/31 14:48:19;;;;;;;3.10;2.80;;;;;;;;;;5069080;28;20523;-70
2021/10/31 14:50:47;;;;;;;3.90;2.67;;;;;;;;;;5080664;28;20487;-70
2021/10/31 14:53:15;;;;;;;7.97;2.57;;;;;;;;;;5088519;28;20447;-70
2021/10/31 14:55:42;;;;;;;6.87;3.00;;;;;;;;;;5087579;28;20443;-70
2021/10/31 14:58:12;;;;;;;4.20;2.90;;;;;;;;;;5088977;28;20452;-71
2021/10/31 15:00:40;;;;;;;5.77;3.93;;;;;;;;;;5088994;28;20470;-70
2021/10/31 15:03:07;;;;;;;3.70;3.30;;;;;;;;;;5086418;28;20447;-70
2021/10/31 15:05:35;;;;;;;3.60;2.80;;;;;;;;;;5071622;28;20433;-69
2021/10/31 15:08:02;;;;;;;3.73;3.43;;;;;;;;;;5073634;28;20992;-70
2021/10/31 15:10:29;;;;;;;3.00;2.70;;;;;;;;;;5068112;28;21037;-70
2021/10/31 15:12:56;;;;;;;6.13;4.53;;;;;;;;;;5077250;28;20443;-70
2021/10/31 15:15:25;;;;;;;4.63;3.67;;;;;;;;;;5072529;28;20450;-70
2021/10/31 15:17:52;;;;;;;6.43;5.10;;;;;;;;;;5080189;28;20443;-70
2021/10/31 15:20:19;;;;;;;3.80;3.40;;;;;;;;;;5082270;28;20441;-70
2021/10/31 15:22:49;;;;;;;3.40;3.10;;;;;;;;;;5070647;28;20552;-70
2021/10/31 15:25:18;;;;;;;5.30;3.33;;;;;;;;;;5081198;28;20518;-70
2021/10/31 15:27:45;;;;;;;4.57;3.37;;;;;;;;;;5088729;28;20448;-70
2021/10/31 15:30:13;;;;;;;3.63;3.33;;;;;;;;;;5088236;28;20468;-70
2021/10/31 15:32:41;;;;;;;5.33;3.83;;;;;;;;;;5076942;28;20464;-70
2021/10/31 15:35:08;;;;;;;4.20;2.90;;;;;;;;;;5088119;28;20444;-70
2021/10/31 15:37:36;;;;;;;5.90;4.13;;;;;;;;;;5089252;28;20850;-70
2021/10/31 15:40:03;;;;;;;4.47;2.93;;;;;;;;;;5088785;28;20876;-70
2021/10/31 15:42:30;;;;;;;7.23;3.93;;;;;;;;;;5078730;28;20520;-69
2021/10/31 15:44:57;;;;;;;3.20;2.80;;;;;;;;;;5085561;28;20440;-69
2021/10/31 15:47:24;;;;;;;3.53;3.23;;;;;;;;;;5088360;28;20431;-69
2021/10/31 15:49:53;;;;;;;3.90;2.77;;;;;;;;;;5081425;28;20469;-70
2021/10/31 15:52:20;;;;;;;3.70;2.67;;;;;;;;;;5068951;28;20457;-69
2021/10/31 15:54:47;;;;;;;2.90;2.70;;;;;;;;;;5066455;28;20528;-70
2021/10/31 15:57:14;;;;;;;6.40;3.90;;;;;;;;;;5069403;28;20459;-69
2021/10/31 15:59:41;;;;;;;5.37;3.10;;;;;;;;;;5086991;28;20458;-69
2021/10/31 16:02:11;;;;;;;3.60;3.03;;;;;;;;;;5087840;28;20441;-69
2021/10/31 16:04:40;;;;;;;5.20;3.17;;;;;;;;;;5081318;28;20483;-69
2021/10/31 16:07:08;;;;;;;4.37;3.37;;;;;;;;;;5067900;28;20524;-69
2021/10/31 16:09:36;;;;;;;5.43;3.53;;;;;;;;;;5085106;28;20480;-69
2021/10/31 16:12:03;;;;;;;5.13;3.43;;;;;;;;;;5088725;28;20433;-69
2021/10/31 16:14:30;;;;;;;5.77;3.43;;;;;;;;;;5071603;28;20448;-69
2021/10/31 16:16:57;;;;;;;5.90;5.00;;;;;;;;;;5071491;28;20468;-69
2021/10/31 16:19:25;;;;;;;7.33;4.33;;;;;;;;;;5087659;28;20531;-69
2021/10/31 16:21:52;;;;;;;6.80;5.00;;;;;;;;;;5071768;28;20944;-69
2021/10/31 16:24:21;;;;;;;5.53;4.27;;;;;;;;;;5089367;28;20815;-69
2021/10/31 16:26:48;;;;;;;7.80;5.20;;;;;;;;;;5086648;28;20450;-70
2021/10/31 16:29:16;;;;;;;7.47;3.83;;;;;;;;;;5076288;28;20496;-70
2021/10/31 16:31:44;;;;;;;7.37;4.33;;;;;;;;;;5073091;28;20936;-70
2021/10/31 16:34:11;;;;;;;4.07;3.47;;;;;;;;;;5090914;28;20475;-70
2021/10/31 16:36:38;;;;;;;4.23;3.77;;;;;;;;;;5091913;28;20465;-69
2021/10/31 16:39:06;;;;;;;8.20;4.10;;;;;;;;;;5092211;28;20786;-70
2021/10/31 16:41:38;;;;;;;8.33;5.20;;;;;;;;;;5091880;28;20447;-70
2021/10/31 16:44:05;;;;;;;7.10;5.67;;;;;;;;;;5088845;28;20429;-70
2021/10/31 16:46:33;;;;;;;5.80;4.37;;;;;;;;;;5071647;28;20445;-70
2021/10/31 16:49:00;;;;;;;5.40;4.23;;;;;;;;;;5071678;28;20529;-70
2021/10/31 16:51:28;;;;;;;9.57;5.33;;;;;;;;;;5070514;28;20821;-70
2021/10/31 16:53:55;;;;;;;5.67;4.87;;;;;;;;;;5071415;28;20437;-70
2021/10/31 16:56:22;;;;;;;9.27;5.80;;;;;;;;;;5086120;28;20441;-70
2021/10/31 16:58:51;;;;;;;5.70;4.77;;;;;;;;;;5081209;28;20447;-70
2021/10/31 17:01:18;;;;;;;7.20;5.70;;;;;;;;;;5074688;28;20472;-69
2021/10/31 17:03:45;;;;;;;7.20;4.83;;;;;;;;;;5076766;28;20449;-69
2021/10/31 17:06:13;;;;;;;9.90;4.97;;;;;;;;;;5090291;28;20514;-69
2021/10/31 17:08:40;;;;;;;5.60;5.10;;;;;;;;;;5091178;28;20447;-69
2021/10/31 17:11:07;;;;;;;7.70;5.00;;;;;;;;;;5091322;28;20480;-71
